createdAt,value
2022-12-24T00:00:56.191Z,12.00
2022-12-24T00:03:42.920Z,12.00
2022-12-24T00:06:31.068Z,12.00
2022-12-24T00:09:17.435Z,12.00
2022-12-24T00:12:03.793Z,12.10
2022-12-24T00:14:50.222Z,12.10
2022-12-24T00:17:36.847Z,12.10
2022-12-24T00:20:24.863Z,12.10
2022-12-24T00:23:12.748Z,12.10
2022-12-24T00:25:59.332Z,12.10
2022-12-24T00:28:45.716Z,12.00
2022-12-24T00:31:32.442Z,12.00
2022-12-24T00:34:19.351Z,12.00
2022-12-24T00:37:06.044Z,12.00
2022-12-24T00:39:53.986Z,12.00
2022-12-24T00:42:40.245Z,12.00
2022-12-24T00:45:27.755Z,11.90
2022-12-24T00:48:14.131Z,11.90
2022-12-24T00:51:00.668Z,11.90
2022-12-24T00:53:47.772Z,11.80
2022-12-24T00:56:35.943Z,11.80
2022-12-24T00:59:22.570Z,11.70
2022-12-24T01:02:09.059Z,11.60
2022-12-24T01:05:13.743Z,11.60
2022-12-24T01:08:00.340Z,11.60
2022-12-24T01:10:47.133Z,11.60
2022-12-24T01:13:35.389Z,11.50
2022-12-24T01:16:22.583Z,11.50
2022-12-24T01:19:09.367Z,11.50
2022-12-24T01:21:56.134Z,11.40
2022-12-24T01:24:44.224Z,11.40
2022-12-24T01:27:30.934Z,11.40
2022-12-24T01:30:18.672Z,11.40
2022-12-24T01:33:05.269Z,11.40
2022-12-24T01:35:51.514Z,11.40
2022-12-24T01:38:38.021Z,11.30
2022-12-24T01:41:42.553Z,11.30
2022-12-24T01:44:36.431Z,11.30
2022-12-24T01:47:28.567Z,11.30
2022-12-24T01:50:18.149Z,11.30
2022-12-24T01:53:07.420Z,11.30
2022-12-24T01:55:54.759Z,11.30
2022-12-24T01:58:45.794Z,11.30
2022-12-24T02:01:32.645Z,11.30
2022-12-24T02:04:27.326Z,11.30
2022-12-24T02:07:13.677Z,11.30
2022-12-24T02:10:02.674Z,11.30
2022-12-24T02:12:50.139Z,11.20
2022-12-24T02:15:45.563Z,11.30
2022-12-24T02:18:38.550Z,11.30
2022-12-24T02:21:47.781Z,11.30
2022-12-24T02:24:56.952Z,11.20
2022-12-24T02:27:55.059Z,11.20
2022-12-24T02:30:46.478Z,11.20
2022-12-24T02:33:39.599Z,11.20
2022-12-24T02:36:31.834Z,11.20
2022-12-24T02:39:23.615Z,11.20
2022-12-24T02:42:13.750Z,11.20
2022-12-24T02:45:04.325Z,11.20
2022-12-24T02:47:53.865Z,11.20
2022-12-24T02:50:40.499Z,11.20
2022-12-24T02:53:26.871Z,11.10
2022-12-24T02:56:32.889Z,11.10
2022-12-24T02:59:34.253Z,11.10
2022-12-24T03:02:27.764Z,11.10
2022-12-24T03:05:24.760Z,11.10
2022-12-24T03:08:17.558Z,11.10
2022-12-24T03:11:08.858Z,11.10
2022-12-24T03:13:58.728Z,11.20
2022-12-24T03:16:46.474Z,11.20
2022-12-24T03:19:35.429Z,11.20
2022-12-24T03:22:25.061Z,11.20
2022-12-24T03:25:11.839Z,11.20
2022-12-24T03:27:59.719Z,11.20
2022-12-24T03:30:48.672Z,11.30
2022-12-24T03:33:35.710Z,11.30
2022-12-24T03:36:25.390Z,11.30
2022-12-24T03:39:13.489Z,11.30
2022-12-24T03:41:59.960Z,11.30
2022-12-24T03:44:46.418Z,11.30
2022-12-24T03:47:33.208Z,11.30
2022-12-24T03:50:19.968Z,11.20
2022-12-24T03:53:06.454Z,11.30
2022-12-24T03:55:54.200Z,11.20
2022-12-24T03:58:40.563Z,11.20
2022-12-24T04:01:27.673Z,11.20
2022-12-24T04:04:14.243Z,11.20
2022-12-24T04:07:00.545Z,11.20
2022-12-24T04:09:47.155Z,11.30
2022-12-24T04:12:37.913Z,11.30
2022-12-24T04:15:24.456Z,11.30
2022-12-24T04:18:10.783Z,11.20
2022-12-24T04:20:57.456Z,11.20
2022-12-24T04:23:44.635Z,11.20
2022-12-24T04:26:31.532Z,11.10
2022-12-24T04:29:19.226Z,11.10
2022-12-24T04:32:05.854Z,11.10
2022-12-24T04:34:52.604Z,11.20
2022-12-24T04:37:39.333Z,11.20
2022-12-24T04:40:25.670Z,11.30
2022-12-24T04:43:12.092Z,11.30
2022-12-24T04:46:05.701Z,11.30
2022-12-24T04:48:54.010Z,11.30
2022-12-24T04:51:40.517Z,11.30
2022-12-24T04:54:27.024Z,11.30
2022-12-24T04:57:13.454Z,11.20
2022-12-24T04:59:59.755Z,11.20
2022-12-24T05:02:47.567Z,11.10
2022-12-24T05:05:34.087Z,11.10
2022-12-24T05:08:20.364Z,11.10
2022-12-24T05:11:07.981Z,11.10
2022-12-24T05:13:54.661Z,11.10
2022-12-24T05:16:41.505Z,11.00
2022-12-24T05:19:29.345Z,11.10
2022-12-24T05:22:33.700Z,11.00
2022-12-24T05:25:37.659Z,11.00
2022-12-24T05:28:24.685Z,11.00
2022-12-24T05:31:11.400Z,11.10
2022-12-24T05:33:58.414Z,11.10
2022-12-24T05:36:46.665Z,11.00
2022-12-24T05:39:33.262Z,11.10
2022-12-24T05:42:19.808Z,11.10
2022-12-24T05:45:07.903Z,11.10
2022-12-24T05:47:54.594Z,11.10
2022-12-24T05:50:41.964Z,11.10
2022-12-24T05:53:30.949Z,11.10
2022-12-24T05:56:19.529Z,11.00
2022-12-24T05:59:05.823Z,11.00
2022-12-24T06:01:52.399Z,11.00
2022-12-24T06:04:39.235Z,10.90
2022-12-24T06:07:26.093Z,11.00
2022-12-24T06:10:13.849Z,11.00
2022-12-24T06:13:00.492Z,11.00
2022-12-24T06:15:46.733Z,11.00
2022-12-24T06:18:34.693Z,11.00
2022-12-24T06:21:21.370Z,11.00
2022-12-24T06:24:08.713Z,11.00
2022-12-24T06:26:57.079Z,11.00
2022-12-24T06:29:43.665Z,11.10
2022-12-24T06:32:30.571Z,11.00
2022-12-24T06:35:17.002Z,11.00
2022-12-24T06:38:03.522Z,11.00
2022-12-24T06:40:49.889Z,11.00
2022-12-24T06:43:37.754Z,11.00
2022-12-24T06:46:24.200Z,11.00
2022-12-24T06:49:11.215Z,11.00
2022-12-24T06:51:57.478Z,11.00
2022-12-24T06:54:44.599Z,11.00
2022-12-24T06:57:32.248Z,11.00
2022-12-24T07:00:21.822Z,11.10
2022-12-24T07:03:08.536Z,11.10
2022-12-24T07:05:55.700Z,11.10
2022-12-24T07:08:42.071Z,11.10
2022-12-24T07:11:28.449Z,11.10
2022-12-24T07:14:15.399Z,11.10
2022-12-24T07:17:03.354Z,11.10
2022-12-24T07:19:50.152Z,11.10
2022-12-24T07:22:36.424Z,11.10
2022-12-24T07:25:22.773Z,11.00
2022-12-24T07:28:09.088Z,11.00
2022-12-24T07:30:56.283Z,11.10
2022-12-24T07:33:44.774Z,11.10
2022-12-24T07:36:31.108Z,11.00
2022-12-24T07:39:17.881Z,11.10
2022-12-24T07:42:05.585Z,11.00
2022-12-24T07:44:52.069Z,11.00
2022-12-24T07:47:38.420Z,11.00
2022-12-24T07:50:26.289Z,11.00
2022-12-24T07:53:12.888Z,11.00
2022-12-24T07:55:59.747Z,10.90
2022-12-24T07:58:46.432Z,10.90
2022-12-24T08:01:32.907Z,10.90
2022-12-24T08:04:19.643Z,10.90
2022-12-24T08:07:08.485Z,11.00
2022-12-24T08:09:54.978Z,11.00
2022-12-24T08:12:41.365Z,11.20
2022-12-24T08:15:27.789Z,11.20
2022-12-24T08:18:14.256Z,11.00
2022-12-24T08:21:01.053Z,11.10
2022-12-24T08:23:49.159Z,11.20
2022-12-24T08:26:35.575Z,11.30
2022-12-24T08:29:22.358Z,11.30
2022-12-24T08:32:08.899Z,11.30
2022-12-24T08:34:55.739Z,11.40
2022-12-24T08:37:42.042Z,11.40
2022-12-24T08:40:30.148Z,11.30
2022-12-24T08:43:16.969Z,11.40
2022-12-24T08:46:05.203Z,11.40
2022-12-24T08:48:51.732Z,11.30
2022-12-24T08:51:38.151Z,11.30
2022-12-24T08:54:25.301Z,11.30
2022-12-24T08:57:14.573Z,11.40
2022-12-24T09:00:01.174Z,11.50
2022-12-24T09:02:47.715Z,11.50
2022-12-24T09:05:34.326Z,11.50
2022-12-24T09:08:20.997Z,11.60
2022-12-24T09:11:10.098Z,11.60
2022-12-24T09:13:57.890Z,11.50
2022-12-24T09:16:44.268Z,11.70
2022-12-24T09:19:31.092Z,11.80
2022-12-24T09:22:17.856Z,11.80
2022-12-24T09:25:05.093Z,11.80
2022-12-24T09:27:52.012Z,11.90
2022-12-24T09:30:40.284Z,12.00
2022-12-24T09:33:26.946Z,12.10
2022-12-24T09:36:14.085Z,12.00
2022-12-24T09:39:00.761Z,12.00
2022-12-24T09:41:56.477Z,11.90
2022-12-24T09:44:47.741Z,11.90
2022-12-24T09:47:40.804Z,11.90
2022-12-24T09:50:38.893Z,11.80
2022-12-24T09:53:29.981Z,11.70
2022-12-24T09:56:19.815Z,11.60
2022-12-24T09:59:07.987Z,11.50
2022-12-24T10:01:56.209Z,11.40
2022-12-24T10:04:45.629Z,11.30
2022-12-24T10:07:39.746Z,11.40
2022-12-24T10:10:36.871Z,11.30
2022-12-24T10:13:38.830Z,11.40
2022-12-24T10:16:33.467Z,11.40
2022-12-24T10:19:24.821Z,11.40
2022-12-24T10:22:21.894Z,11.30
2022-12-24T10:25:18.088Z,11.30
2022-12-24T10:28:14.241Z,11.30
2022-12-24T10:31:05.030Z,11.40
2022-12-24T10:33:57.946Z,11.40
2022-12-24T10:36:44.595Z,11.40
2022-12-24T10:39:32.299Z,11.40
2022-12-24T10:42:19.260Z,11.30
2022-12-24T10:45:08.237Z,11.40
2022-12-24T10:48:03.355Z,11.40
2022-12-24T10:50:57.631Z,11.40
2022-12-24T10:53:48.543Z,11.30
2022-12-24T10:56:43.388Z,11.20
2022-12-24T10:59:35.125Z,11.30
2022-12-24T11:02:30.813Z,11.30
2022-12-24T11:05:31.403Z,11.40
2022-12-24T11:08:20.300Z,11.50
2022-12-24T11:11:09.519Z,11.60
2022-12-24T11:13:59.325Z,11.70
2022-12-24T11:16:52.385Z,11.80
2022-12-24T11:19:40.502Z,11.80
2022-12-24T11:22:29.319Z,11.80
2022-12-24T11:25:22.018Z,11.80
2022-12-24T11:28:14.132Z,11.90
2022-12-24T11:31:05.477Z,11.90
2022-12-24T11:33:53.618Z,12.00
2022-12-24T11:36:40.285Z,12.10
2022-12-24T11:39:27.300Z,12.20
2022-12-24T11:42:26.242Z,12.20
2022-12-24T11:45:24.239Z,12.20
2022-12-24T11:48:27.451Z,12.10
2022-12-24T11:51:31.817Z,12.00
2022-12-24T11:54:24.924Z,11.90
2022-12-24T11:57:15.984Z,11.80
2022-12-24T12:00:02.774Z,11.80
2022-12-24T12:02:52.725Z,11.80
2022-12-24T12:05:41.114Z,11.90
2022-12-24T12:08:30.132Z,11.90
2022-12-24T12:11:17.169Z,12.00
2022-12-24T12:14:05.639Z,12.00
2022-12-24T12:17:03.588Z,12.10
2022-12-24T12:19:58.679Z,12.20
2022-12-24T12:22:51.769Z,12.30
2022-12-24T12:25:45.024Z,12.30
2022-12-24T12:28:37.385Z,12.20
2022-12-24T12:31:28.601Z,12.20
2022-12-24T12:34:21.249Z,12.20
2022-12-24T12:37:15.031Z,12.20
2022-12-24T12:40:03.357Z,12.20
2022-12-24T12:43:00.446Z,12.10
2022-12-24T12:45:55.128Z,12.10
2022-12-24T12:49:15.605Z,12.10
2022-12-24T12:52:09.796Z,12.10
2022-12-24T12:55:20.530Z,12.20
2022-12-24T12:58:14.295Z,12.10
2022-12-24T13:01:06.596Z,12.10
2022-12-24T13:04:35.695Z,12.10
2022-12-24T13:07:48.450Z,12.10
2022-12-24T13:10:54.149Z,12.10
2022-12-24T13:14:11.493Z,12.20
2022-12-24T13:17:26.276Z,12.30
2022-12-24T13:20:21.284Z,12.20
2022-12-24T13:23:14.600Z,12.10
2022-12-24T13:26:11.988Z,12.20
2022-12-24T13:29:31.302Z,12.20
2022-12-24T13:32:49.297Z,12.30
2022-12-24T13:35:58.497Z,12.40
2022-12-24T13:38:48.208Z,12.40
2022-12-24T13:42:00.377Z,12.30
2022-12-24T13:44:47.120Z,12.30
2022-12-24T13:47:33.425Z,12.20
2022-12-24T13:50:25.316Z,12.20
2022-12-24T13:53:23.421Z,12.20
2022-12-24T13:56:21.958Z,12.20
2022-12-24T13:59:25.040Z,12.20
2022-12-24T14:02:22.032Z,12.20
2022-12-24T14:05:21.799Z,12.30
2022-12-24T14:08:12.081Z,12.20
2022-12-24T14:11:05.709Z,12.20
2022-12-24T14:14:15.081Z,12.20
2022-12-24T14:17:07.309Z,12.20
2022-12-24T14:19:56.152Z,12.20
2022-12-24T14:22:46.765Z,12.20
2022-12-24T14:25:33.559Z,12.10
2022-12-24T14:28:25.411Z,12.10
2022-12-24T14:31:16.747Z,12.10
2022-12-24T14:34:09.961Z,12.20
2022-12-24T14:36:57.573Z,12.10
2022-12-24T14:39:48.754Z,12.20
2022-12-24T14:42:44.581Z,12.20
2022-12-24T14:45:38.711Z,12.20
2022-12-24T14:48:35.575Z,12.20
2022-12-24T14:51:30.102Z,12.20
2022-12-24T14:54:30.633Z,12.20
2022-12-24T14:57:23.785Z,12.20
2022-12-24T15:00:21.593Z,12.10
2022-12-24T15:03:14.688Z,12.10
2022-12-24T15:06:05.898Z,12.00
2022-12-24T15:08:54.688Z,12.00
2022-12-24T15:11:45.101Z,12.00
2022-12-24T15:14:35.569Z,12.00
2022-12-24T15:17:22.537Z,12.00
2022-12-24T15:20:17.696Z,11.90
2022-12-24T15:23:04.262Z,12.00
2022-12-24T15:25:52.157Z,12.00
2022-12-24T15:28:39.934Z,12.00
2022-12-24T15:31:28.666Z,11.90
2022-12-24T15:34:26.969Z,11.90
2022-12-24T15:37:17.635Z,11.80
2022-12-24T15:40:10.437Z,11.80
2022-12-24T15:42:58.385Z,11.70
2022-12-24T15:45:48.284Z,11.70
2022-12-24T15:48:38.186Z,11.60
2022-12-24T15:51:27.316Z,11.50
2022-12-24T15:54:19.290Z,11.60
2022-12-24T15:57:22.955Z,11.50
2022-12-24T16:00:23.564Z,11.60
2022-12-24T16:03:20.162Z,11.60
2022-12-24T16:06:08.816Z,11.70
2022-12-24T16:08:56.266Z,11.70
2022-12-24T16:11:42.906Z,11.70
2022-12-24T16:14:29.852Z,11.70
2022-12-24T16:17:23.826Z,11.80
2022-12-24T16:20:17.881Z,11.90
2022-12-24T16:23:04.469Z,11.90
2022-12-24T16:25:52.725Z,11.90
2022-12-24T16:28:39.830Z,11.80
2022-12-24T16:31:31.863Z,11.80
2022-12-24T16:34:21.573Z,11.70
2022-12-24T16:37:08.433Z,11.70
2022-12-24T16:39:54.797Z,11.60
2022-12-24T16:42:58.582Z,11.70
2022-12-24T16:45:47.494Z,11.50
2022-12-24T16:48:37.481Z,11.40
2022-12-24T16:51:25.280Z,11.30
2022-12-24T16:54:13.337Z,11.40
2022-12-24T16:56:59.939Z,11.50
2022-12-24T16:59:46.590Z,11.50
2022-12-24T17:02:33.421Z,11.50
2022-12-24T17:05:23.685Z,11.40
2022-12-24T17:08:12.089Z,11.00
2022-12-24T17:10:58.393Z,10.80
2022-12-24T17:13:45.103Z,10.60
2022-12-24T17:16:32.329Z,10.60
2022-12-24T17:19:19.182Z,10.40
2022-12-24T17:22:06.118Z,10.30
2022-12-24T17:24:53.799Z,10.30
2022-12-24T17:27:40.448Z,10.20
2022-12-24T17:30:27.034Z,10.10
2022-12-24T17:33:15.052Z,10.00
2022-12-24T17:36:02.212Z,9.90
2022-12-24T17:38:49.955Z,10.00
2022-12-24T17:41:37.669Z,10.00
2022-12-24T17:44:24.373Z,10.10
2022-12-24T17:47:11.282Z,10.10
2022-12-24T17:49:57.932Z,10.10
2022-12-24T17:52:44.383Z,9.80
2022-12-24T17:55:30.938Z,9.60
2022-12-24T17:58:18.701Z,9.50
2022-12-24T18:01:06.006Z,9.50
2022-12-24T18:03:53.989Z,9.50
2022-12-24T18:06:47.187Z,9.40
2022-12-24T18:09:35.996Z,9.40
2022-12-24T18:12:22.385Z,9.30
2022-12-24T18:15:11.613Z,9.30
2022-12-24T18:17:59.277Z,9.30
2022-12-24T18:20:47.071Z,9.30
2022-12-24T18:23:33.531Z,9.40
2022-12-24T18:26:21.017Z,9.50
2022-12-24T18:29:08.723Z,9.60
2022-12-24T18:31:56.523Z,9.60
2022-12-24T18:34:43.035Z,9.70
2022-12-24T18:37:29.455Z,9.70
2022-12-24T18:40:18.009Z,9.70
2022-12-24T18:43:04.696Z,9.80
2022-12-24T18:45:51.206Z,9.80
2022-12-24T18:48:39.054Z,9.60
2022-12-24T18:51:28.685Z,9.60
2022-12-24T18:54:15.091Z,9.50
2022-12-24T18:57:01.683Z,9.40
2022-12-24T18:59:48.477Z,9.30
2022-12-24T19:02:35.006Z,9.30
2022-12-24T19:05:23.314Z,9.30
2022-12-24T19:08:37.894Z,9.20
2022-12-24T19:11:17.931Z,9.10
2022-12-24T19:14:07.390Z,9.20
2022-12-24T19:16:54.144Z,9.30
2022-12-24T19:19:41.309Z,9.40
2022-12-24T19:22:29.118Z,9.60
2022-12-24T19:25:15.522Z,9.80
2022-12-24T19:28:02.037Z,9.80
2022-12-24T19:30:48.560Z,10.00
2022-12-24T19:33:42.502Z,10.10
2022-12-24T19:36:31.544Z,10.00
2022-12-24T19:39:19.254Z,10.10
2022-12-24T19:42:06.134Z,10.20
2022-12-24T19:44:52.654Z,10.10
2022-12-24T19:47:39.586Z,10.20
2022-12-24T19:50:26.010Z,10.20
2022-12-24T19:53:12.273Z,10.10
2022-12-24T19:56:00.130Z,9.90
2022-12-24T19:58:47.056Z,9.80
2022-12-24T20:01:35.704Z,9.80
2022-12-24T20:04:22.385Z,9.70
2022-12-24T20:07:08.774Z,9.80
2022-12-24T20:09:55.444Z,9.70
2022-12-24T20:12:43.661Z,9.60
2022-12-24T20:15:30.241Z,9.60
2022-12-24T20:18:16.936Z,9.60
2022-12-24T20:21:05.954Z,9.50
2022-12-24T20:23:53.280Z,9.50
2022-12-24T20:26:40.122Z,9.40
2022-12-24T20:29:28.164Z,9.40
2022-12-24T20:32:15.165Z,9.30
2022-12-24T20:35:02.074Z,9.30
2022-12-24T20:37:48.525Z,9.20
2022-12-24T20:40:34.760Z,9.40
2022-12-24T20:43:24.257Z,9.50
2022-12-24T20:46:12.771Z,9.60
2022-12-24T20:48:59.502Z,9.70
2022-12-24T20:51:45.875Z,9.80
2022-12-24T20:54:32.853Z,9.90
2022-12-24T20:57:25.220Z,10.10
2022-12-24T21:00:16.087Z,10.10
2022-12-24T21:03:04.031Z,10.20
2022-12-24T21:05:50.808Z,10.10
2022-12-24T21:08:37.706Z,10.10
2022-12-24T21:11:42.002Z,10.10
2022-12-24T21:14:28.872Z,10.10
2022-12-24T21:17:16.257Z,10.10
2022-12-24T21:20:05.023Z,10.20
2022-12-24T21:22:55.991Z,10.20
2022-12-24T21:25:48.549Z,10.30
2022-12-24T21:28:35.092Z,10.30
2022-12-24T21:31:22.335Z,10.30
2022-12-24T21:34:09.204Z,10.40
2022-12-24T21:36:57.340Z,10.40
2022-12-24T21:39:44.176Z,10.10
2022-12-24T21:42:33.233Z,9.90
2022-12-24T21:45:20.051Z,9.80
2022-12-24T21:48:28.155Z,9.70
2022-12-24T21:51:16.070Z,9.70
2022-12-24T21:54:21.482Z,9.50
2022-12-24T21:57:27.746Z,9.50
2022-12-24T22:00:24.339Z,9.50
2022-12-24T22:03:11.004Z,9.40
2022-12-24T22:05:59.725Z,9.40
2022-12-24T22:09:03.544Z,9.20
2022-12-24T22:11:54.581Z,9.00
2022-12-24T22:14:41.465Z,9.10
2022-12-24T22:17:28.893Z,9.20
2022-12-24T22:20:15.843Z,9.20
2022-12-24T22:23:02.587Z,9.10
2022-12-24T22:25:48.969Z,9.10
2022-12-24T22:28:36.461Z,9.20
2022-12-24T22:31:24.985Z,9.40
2022-12-24T22:34:11.979Z,9.50
2022-12-24T22:36:58.138Z,9.60
2022-12-24T22:39:44.601Z,9.60
2022-12-24T22:42:33.146Z,9.70
2022-12-24T22:45:22.660Z,9.80
2022-12-24T22:48:10.253Z,9.80
2022-12-24T22:50:57.298Z,10.00
2022-12-24T22:53:44.225Z,10.00
2022-12-24T22:56:34.348Z,10.00
2022-12-24T22:59:25.506Z,9.90
2022-12-24T23:02:13.606Z,9.90
2022-12-24T23:05:00.664Z,9.90
2022-12-24T23:07:47.552Z,9.70
2022-12-24T23:10:35.207Z,9.80
2022-12-24T23:13:39.516Z,9.70
2022-12-24T23:16:28.070Z,9.80
2022-12-24T23:19:16.469Z,9.80
2022-12-24T23:22:04.648Z,9.70
2022-12-24T23:24:51.288Z,9.80
2022-12-24T23:27:38.698Z,9.70
2022-12-24T23:30:25.329Z,9.80
2022-12-24T23:33:12.319Z,9.70
2022-12-24T23:36:00.982Z,9.60
2022-12-24T23:38:47.498Z,9.60
2022-12-24T23:41:34.251Z,9.70
2022-12-24T23:44:23.089Z,9.70
2022-12-24T23:47:12.300Z,9.60
2022-12-24T23:49:59.006Z,9.50
2022-12-24T23:52:46.641Z,9.50
2022-12-24T23:55:32.965Z,9.40
2022-12-24T23:58:20.036Z,9.40
